sensor_id;sensor_type;location;lat;lon;timestamp;pressure;altitude;pressure_sealevel;temperature;humidity
52745;BME280;38637;49.984;20.426;2024-03-23T00:55:29;98718.75;;;11.12;69.34
52745;BME280;38637;49.984;20.426;2024-03-23T00:57:54;98714.09;;;11.13;69.65
52745;BME280;38637;49.984;20.426;2024-03-23T01:00:20;98708.09;;;11.11;69.18
52745;BME280;38637;49.984;20.426;2024-03-23T01:02:45;98705.66;;;11.09;68.50
52745;BME280;38637;49.984;20.426;2024-03-23T01:05:11;98711.69;;;11.11;68.25
52745;BME280;38637;49.984;20.426;2024-03-23T01:07:36;98692.81;;;11.10;68.63
52745;BME280;38637;49.984;20.426;2024-03-23T01:10:02;98704.53;;;11.15;69.15
52745;BME280;38637;49.984;20.426;2024-03-23T01:12:27;98688.97;;;11.16;69.05
52745;BME280;38637;49.984;20.426;2024-03-23T01:14:52;98700.44;;;11.18;69.16
52745;BME280;38637;49.984;20.426;2024-03-23T01:17:18;98700.44;;;11.18;70.08
52745;BME280;38637;49.984;20.426;2024-03-23T01:19:43;98690.06;;;11.15;70.01
52745;BME280;38637;49.984;20.426;2024-03-23T01:22:08;98685.69;;;11.14;69.97
52745;BME280;38637;49.984;20.426;2024-03-23T01:24:35;98686.78;;;11.13;69.77
52745;BME280;38637;49.984;20.426;2024-03-23T01:27:01;98689.81;;;11.11;69.64
52745;BME280;38637;49.984;20.426;2024-03-23T01:29:26;98685.16;;;11.12;68.87
52745;BME280;38637;49.984;20.426;2024-03-23T01:31:51;98684.34;;;11.11;69.09
52745;BME280;38637;49.984;20.426;2024-03-23T01:34:16;98681.06;;;11.09;69.49
52745;BME280;38637;49.984;20.426;2024-03-23T01:36:42;98680.25;;;11.09;69.84
52745;BME280;38637;49.984;20.426;2024-03-23T01:39:07;98673.44;;;11.06;69.51
52745;BME280;38637;49.984;20.426;2024-03-23T01:41:35;98676.44;;;11.04;68.57
52745;BME280;38637;49.984;20.426;2024-03-23T01:44:05;98675.94;;;11.02;68.86
52745;BME280;38637;49.984;20.426;2024-03-23T01:46:31;98675.94;;;11.02;67.98
52745;BME280;38637;49.984;20.426;2024-03-23T01:48:57;98663.38;;;10.96;68.45
52745;BME280;38637;49.984;20.426;2024-03-23T01:51:22;98670.16;;;11.04;67.99
52745;BME280;38637;49.984;20.426;2024-03-23T01:53:49;98660.34;;;11.03;68.64
52745;BME280;38637;49.984;20.426;2024-03-23T01:56:14;98655.69;;;11.03;67.87
52745;BME280;38637;49.984;20.426;2024-03-23T01:58:39;98661.69;;;11.06;67.78
52745;BME280;38637;49.984;20.426;2024-03-23T02:01:04;98657.59;;;11.08;67.91
52745;BME280;38637;49.984;20.426;2024-03-23T02:03:30;98651.03;;;11.09;66.73
52745;BME280;38637;49.984;20.426;2024-03-23T02:05:55;98652.38;;;11.12;67.16
52745;BME280;38637;49.984;20.426;2024-03-23T02:08:22;98655.34;;;11.15;66.60
52745;BME280;38637;49.984;20.426;2024-03-23T02:10:48;98649.88;;;11.15;66.66
52745;BME280;38637;49.984;20.426;2024-03-23T02:13:14;98640.34;;;11.13;67.40
52745;BME280;38637;49.984;20.426;2024-03-23T02:15:40;98641.44;;;11.12;67.45
52745;BME280;38637;49.984;20.426;2024-03-23T02:18:07;98633.75;;;11.14;66.71
52745;BME280;38637;49.984;20.426;2024-03-23T02:20:33;98629.94;;;11.15;66.81
52745;BME280;38637;49.984;20.426;2024-03-23T02:22:58;98632.69;;;11.15;66.17
52745;BME280;38637;49.984;20.426;2024-03-23T02:25:23;98630.75;;;11.15;66.33
52745;BME280;38637;49.984;20.426;2024-03-23T02:27:49;98629.13;;;11.14;66.29
52745;BME280;38637;49.984;20.426;2024-03-23T02:30:14;98624.47;;;11.15;66.33
52745;BME280;38637;49.984;20.426;2024-03-23T02:32:41;98625.00;;;11.17;66.27
52745;BME280;38637;49.984;20.426;2024-03-23T02:35:06;98628.56;;;11.17;66.68
52745;BME280;38637;49.984;20.426;2024-03-23T02:37:31;98615.19;;;11.16;66.36
52745;BME280;38637;49.984;20.426;2024-03-23T02:39:58;98620.63;;;11.16;66.64
52745;BME280;38637;49.984;20.426;2024-03-23T02:42:23;98610.00;;;11.14;66.78
52745;BME280;38637;49.984;20.426;2024-03-23T02:44:48;98622.81;;;11.14;67.44
52745;BME280;38637;49.984;20.426;2024-03-23T02:47:14;98608.94;;;11.10;68.38
52745;BME280;38637;49.984;20.426;2024-03-23T02:49:39;98601.03;;;11.09;69.60
52745;BME280;38637;49.984;20.426;2024-03-23T02:52:04;98599.66;;;11.06;68.39
52745;BME280;38637;49.984;20.426;2024-03-23T02:54:30;98597.22;;;11.04;68.16
52745;BME280;38637;49.984;20.426;2024-03-23T02:56:55;98601.34;;;11.02;67.90
52745;BME280;38637;49.984;20.426;2024-03-23T02:59:20;98600.50;;;11.01;68.48
52745;BME280;38637;49.984;20.426;2024-03-23T03:01:46;98602.19;;;10.97;67.71
52745;BME280;38637;49.984;20.426;2024-03-23T03:04:11;98599.47;;;10.92;69.67
52745;BME280;38637;49.984;20.426;2024-03-23T03:06:36;98592.00;;;10.69;70.34
52745;BME280;38637;49.984;20.426;2024-03-23T03:09:02;98602.38;;;10.67;71.09
52745;BME280;38637;49.984;20.426;2024-03-23T03:11:27;98610.31;;;10.63;70.94
52745;BME280;38637;49.984;20.426;2024-03-23T03:13:53;98611.41;;;10.62;71.38
52745;BME280;38637;49.984;20.426;2024-03-23T03:16:18;98610.56;;;10.62;71.68
52745;BME280;38637;49.984;20.426;2024-03-23T03:18:43;98608.13;;;10.60;72.20
52745;BME280;38637;49.984;20.426;2024-03-23T03:21:11;98618.25;;;10.60;72.22
52745;BME280;38637;49.984;20.426;2024-03-23T03:23:37;98610.63;;;10.56;73.05
52745;BME280;38637;49.984;20.426;2024-03-23T03:26:03;98602.69;;;10.55;73.60
52745;BME280;38637;49.984;20.426;2024-03-23T03:28:29;98602.72;;;10.50;73.93
52745;BME280;38637;49.984;20.426;2024-03-23T03:30:56;98601.38;;;10.47;74.29
52745;BME280;38637;49.984;20.426;2024-03-23T03:33:22;98598.09;;;10.45;74.37
52745;BME280;38637;49.984;20.426;2024-03-23T03:35:47;98599.75;;;10.41;75.54
52745;BME280;38637;49.984;20.426;2024-03-23T03:38:12;98605.47;;;10.40;75.54
52745;BME280;38637;49.984;20.426;2024-03-23T03:40:38;98601.13;;;10.39;75.60
52745;BME280;38637;49.984;20.426;2024-03-23T03:43:03;98592.69;;;10.35;76.72
52745;BME280;38637;49.984;20.426;2024-03-23T03:45:29;98590.53;;;10.32;77.47
52745;BME280;38637;49.984;20.426;2024-03-23T03:47:54;98586.16;;;10.26;78.47
52745;BME280;38637;49.984;20.426;2024-03-23T03:50:21;98584.78;;;10.23;78.27
52745;BME280;38637;49.984;20.426;2024-03-23T03:52:47;98576.34;;;10.20;78.56
52745;BME280;38637;49.984;20.426;2024-03-23T03:55:13;98578.53;;;10.18;78.99
52745;BME280;38637;49.984;20.426;2024-03-23T03:57:39;98563.53;;;10.10;79.32
52745;BME280;38637;49.984;20.426;2024-03-23T04:00:05;98569.53;;;10.12;79.14
52745;BME280;38637;49.984;20.426;2024-03-23T04:02:31;98572.56;;;10.10;79.06
52745;BME280;38637;49.984;20.426;2024-03-23T04:04:56;98529.28;;;9.83;79.21
52745;BME280;38637;49.984;20.426;2024-03-23T04:07:22;98558.94;;;10.05;79.31
52745;BME280;38637;49.984;20.426;2024-03-23T04:09:48;98561.66;;;10.05;79.63
52745;BME280;38637;49.984;20.426;2024-03-23T04:12:14;98555.94;;;10.02;79.58
52745;BME280;38637;49.984;20.426;2024-03-23T04:14:40;98555.41;;;10.00;80.06
52745;BME280;38637;49.984;20.426;2024-03-23T04:17:05;98558.41;;;9.98;80.74
52745;BME280;38637;49.984;20.426;2024-03-23T04:19:30;98554.34;;;9.96;80.92
52745;BME280;38637;49.984;20.426;2024-03-23T04:21:56;98541.78;;;9.95;80.76
52745;BME280;38637;49.984;20.426;2024-03-23T04:24:21;98541.25;;;9.93;81.25
52745;BME280;38637;49.984;20.426;2024-03-23T04:26:47;98551.34;;;9.92;81.09
52745;BME280;38637;49.984;20.426;2024-03-23T04:29:13;98550.81;;;9.90;81.08
52745;BME280;38637;49.984;20.426;2024-03-23T04:31:38;98549.19;;;9.89;81.71
52745;BME280;38637;49.984;20.426;2024-03-23T04:34:04;98521.91;;;9.79;81.98
52745;BME280;38637;49.984;20.426;2024-03-23T04:36:29;98539.09;;;9.84;82.18
52745;BME280;38637;49.984;20.426;2024-03-23T04:38:56;98540.72;;;9.85;81.95
52745;BME280;38637;49.984;20.426;2024-03-23T04:41:22;98538.53;;;9.87;81.99
52745;BME280;38637;49.984;20.426;2024-03-23T04:43:47;98539.34;;;9.88;82.04
52745;BME280;38637;49.984;20.426;2024-03-23T04:46:12;98538.78;;;9.91;82.07
52745;BME280;38637;49.984;20.426;2024-03-23T04:48:38;98543.16;;;9.92;81.83
52745;BME280;38637;49.984;20.426;2024-03-23T04:51:03;98540.72;;;9.90;81.67
52745;BME280;38637;49.984;20.426;2024-03-23T04:53:29;98526.00;;;9.81;82.15
52745;BME280;38637;49.984;20.426;2024-03-23T04:55:58;98542.63;;;9.85;82.39
52745;BME280;38637;49.984;20.426;2024-03-23T04:58:24;98535.56;;;9.84;82.39
52745;BME280;38637;49.984;20.426;2024-03-23T05:00:56;98532.28;;;9.82;82.52
52745;BME280;38637;49.984;20.426;2024-03-23T05:03:22;98529.28;;;9.83;81.82
52745;BME280;38637;49.984;20.426;2024-03-23T05:05:48;98529.00;;;9.85;82.49
52745;BME280;38637;49.984;20.426;2024-03-23T05:08:14;98524.09;;;9.87;82.59
52745;BME280;38637;49.984;20.426;2024-03-23T05:10:41;98532.28;;;9.87;83.15
52745;BME280;38637;49.984;20.426;2024-03-23T05:13:06;98527.91;;;9.86;84.12
52745;BME280;38637;49.984;20.426;2024-03-23T05:15:31;98519.44;;;9.87;84.59
52745;BME280;38637;49.984;20.426;2024-03-23T05:17:57;98518.09;;;9.85;84.38
52745;BME280;38637;49.984;20.426;2024-03-23T05:20:22;98516.47;;;9.89;84.68
52745;BME280;38637;49.984;20.426;2024-03-23T05:22:48;98516.47;;;9.89;84.72
52745;BME280;38637;49.984;20.426;2024-03-23T05:25:13;98514.53;;;9.89;84.76
52745;BME280;38637;49.984;20.426;2024-03-23T05:27:38;98513.44;;;9.90;84.57
52745;BME280;38637;49.984;20.426;2024-03-23T05:30:04;98515.34;;;9.95;84.23
52745;BME280;38637;49.984;20.426;2024-03-23T05:32:31;98503.06;;;9.93;83.91
52745;BME280;38637;49.984;20.426;2024-03-23T05:34:56;98503.84;;;10.03;83.94
52745;BME280;38637;49.984;20.426;2024-03-23T05:37:22;98493.72;;;10.04;83.72
52745;BME280;38637;49.984;20.426;2024-03-23T05:39:48;98479.84;;;10.00;83.93
52745;BME280;38637;49.984;20.426;2024-03-23T05:42:18;98493.97;;;10.12;83.73
52745;BME280;38637;49.984;20.426;2024-03-23T05:44:46;98482.25;;;10.07;83.54
52745;BME280;38637;49.984;20.426;2024-03-23T05:47:12;98501.34;;;10.17;83.39
52745;BME280;38637;49.984;20.426;2024-03-23T05:49:40;98485.47;;;10.19;83.68
52745;BME280;38637;49.984;20.426;2024-03-23T05:52:07;98483.28;;;10.21;83.93
52745;BME280;38637;49.984;20.426;2024-03-23T05:54:35;98472.41;;;10.16;84.25
52745;BME280;38637;49.984;20.426;2024-03-23T05:57:00;98469.94;;;10.20;84.38
52745;BME280;38637;49.984;20.426;2024-03-23T05:59:25;98479.22;;;10.29;84.71
52745;BME280;38637;49.984;20.426;2024-03-23T06:01:52;98477.56;;;10.23;84.73
52745;BME280;38637;49.984;20.426;2024-03-23T06:04:17;98482.75;;;10.29;84.33
52745;BME280;38637;49.984;20.426;2024-03-23T06:06:42;98481.38;;;10.32;84.34
52745;BME280;38637;49.984;20.426;2024-03-23T06:09:08;98465.50;;;10.34;83.64
52745;BME280;38637;49.984;20.426;2024-03-23T06:11:33;98466.28;;;10.40;83.01
52745;BME280;38637;49.984;20.426;2024-03-23T06:13:58;98471.19;;;10.43;82.73
52745;BME280;38637;49.984;20.426;2024-03-23T06:16:24;98477.44;;;10.48;82.90
52745;BME280;38637;49.984;20.426;2024-03-23T06:18:50;98481.78;;;10.54;82.43
52745;BME280;38637;49.984;20.426;2024-03-23T06:21:15;98491.31;;;10.57;81.33
52745;BME280;38637;49.984;20.426;2024-03-23T06:23:41;98480.94;;;10.59;82.05
52745;BME280;38637;49.984;20.426;2024-03-23T06:26:07;98479.00;;;10.60;82.64
52745;BME280;38637;49.984;20.426;2024-03-23T06:28:33;98479.50;;;10.67;82.37
52745;BME280;38637;49.984;20.426;2024-03-23T06:30:58;98483.22;;;10.81;82.15
52745;BME280;38637;49.984;20.426;2024-03-23T06:33:24;98471.94;;;10.93;81.64
52745;BME280;38637;49.984;20.426;2024-03-23T06:35:52;98477.88;;;11.00;82.00
52745;BME280;38637;49.984;20.426;2024-03-23T06:38:18;98470.16;;;11.07;81.63
52745;BME280;38637;49.984;20.426;2024-03-23T06:40:44;98457.50;;;11.16;80.83
52745;BME280;38637;49.984;20.426;2024-03-23T06:43:13;98455.19;;;11.28;80.85
52745;BME280;38637;49.984;20.426;2024-03-23T06:45:39;98461.31;;;11.44;79.54
52745;BME280;38637;49.984;20.426;2024-03-23T06:48:04;98444.50;;;11.56;78.24
52745;BME280;38637;49.984;20.426;2024-03-23T06:50:33;98432.34;;;11.67;77.12
52745;BME280;38637;49.984;20.426;2024-03-23T06:52:58;98427.56;;;11.78;76.83
52745;BME280;38637;49.984;20.426;2024-03-23T06:55:24;98433.78;;;11.84;76.80
52745;BME280;38637;49.984;20.426;2024-03-23T06:57:51;98436.72;;;11.92;77.12
52745;BME280;38637;49.984;20.426;2024-03-23T07:00:17;98422.41;;;12.01;77.07
52745;BME280;38637;49.984;20.426;2024-03-23T07:02:43;98427.19;;;12.09;76.21
52745;BME280;38637;49.984;20.426;2024-03-23T07:05:09;98419.72;;;12.14;75.32
52745;BME280;38637;49.984;20.426;2024-03-23T07:07:35;98436.84;;;12.25;74.40
52745;BME280;38637;49.984;20.426;2024-03-23T07:10:01;98423.31;;;12.34;73.31
52745;BME280;38637;49.984;20.426;2024-03-23T07:12:26;98436.25;;;12.47;72.91
52745;BME280;38637;49.984;20.426;2024-03-23T07:14:51;98425.94;;;12.58;72.72
52745;BME280;38637;49.984;20.426;2024-03-23T07:17:17;98431.75;;;12.70;71.97
52745;BME280;38637;49.984;20.426;2024-03-23T07:19:43;98428.56;;;12.82;71.15
52745;BME280;38637;49.984;20.426;2024-03-23T07:22:09;98428.09;;;12.94;71.23
52745;BME280;38637;49.984;20.426;2024-03-23T07:24:34;98420.22;;;13.06;71.52
52745;BME280;38637;49.984;20.426;2024-03-23T07:26:59;98426.34;;;13.17;70.48
52745;BME280;38637;49.984;20.426;2024-03-23T07:29:25;98426.16;;;13.27;70.25
52745;BME280;38637;49.984;20.426;2024-03-23T07:31:50;98424.94;;;13.33;69.89
52745;BME280;38637;49.984;20.426;2024-03-23T07:34:15;98419.38;;;13.38;68.96
52745;BME280;38637;49.984;20.426;2024-03-23T07:36:41;98414.09;;;13.42;68.46
52745;BME280;38637;49.984;20.426;2024-03-23T07:39:06;98414.22;;;13.50;68.87
52745;BME280;38637;49.984;20.426;2024-03-23T07:41:33;98419.28;;;13.57;69.07
52745;BME280;38637;49.984;20.426;2024-03-23T07:43:58;98413.38;;;13.64;69.23
52745;BME280;38637;49.984;20.426;2024-03-23T07:46:24;98398.88;;;13.63;68.27
52745;BME280;38637;49.984;20.426;2024-03-23T07:48:51;98403.44;;;13.82;67.95
52745;BME280;38637;49.984;20.426;2024-03-23T07:51:18;98400.97;;;13.94;67.63
52745;BME280;38637;49.984;20.426;2024-03-23T07:53:44;98411.28;;;14.11;66.99
52745;BME280;38637;49.984;20.426;2024-03-23T07:56:14;98405.97;;;14.28;66.64
52745;BME280;38637;49.984;20.426;2024-03-23T07:58:44;98403.69;;;14.44;65.35
52745;BME280;38637;49.984;20.426;2024-03-23T08:01:11;98402.25;;;14.60;64.93
52745;BME280;38637;49.984;20.426;2024-03-23T08:03:38;98392.78;;;14.75;64.61
52745;BME280;38637;49.984;20.426;2024-03-23T08:06:11;98395.53;;;14.98;64.69
52745;BME280;38637;49.984;20.426;2024-03-23T08:08:37;98389.94;;;15.11;64.63
52745;BME280;38637;49.984;20.426;2024-03-23T08:11:03;98381.56;;;15.16;62.85
52745;BME280;38637;49.984;20.426;2024-03-23T08:13:29;98373.19;;;15.22;62.30
52745;BME280;38637;49.984;20.426;2024-03-23T08:16:02;98368.81;;;15.29;62.95
52745;BME280;38637;49.984;20.426;2024-03-23T08:18:29;98371.28;;;15.39;62.31
52745;BME280;38637;49.984;20.426;2024-03-23T08:21:02;98361.97;;;15.49;61.80
52745;BME280;38637;49.984;20.426;2024-03-23T08:23:29;98352.44;;;15.55;61.40
52745;BME280;38637;49.984;20.426;2024-03-23T08:25:58;98349.97;;;15.54;60.84
52745;BME280;38637;49.984;20.426;2024-03-23T08:28:24;98352.88;;;15.49;60.53
52745;BME280;38637;49.984;20.426;2024-03-23T08:30:50;98346.38;;;15.45;60.66
52745;BME280;38637;49.984;20.426;2024-03-23T08:33:16;98332.31;;;15.46;59.92
52745;BME280;38637;49.984;20.426;2024-03-23T08:35:42;98329.75;;;15.50;60.14
52745;BME280;38637;49.984;20.426;2024-03-23T08:38:07;98335.31;;;15.67;59.78
52745;BME280;38637;49.984;20.426;2024-03-23T08:40:32;98320.28;;;15.82;59.77
52745;BME280;38637;49.984;20.426;2024-03-23T08:42:58;98325.50;;;16.01;60.99
52745;BME280;38637;49.984;20.426;2024-03-23T08:45:24;98307.84;;;16.11;60.85
52745;BME280;38637;49.984;20.426;2024-03-23T08:47:50;98323.69;;;16.31;60.43
52745;BME280;38637;49.984;20.426;2024-03-23T08:50:16;98304.09;;;16.41;59.68
52745;BME280;38637;49.984;20.426;2024-03-23T08:52:41;98305.81;;;16.63;59.12
52745;BME280;38637;49.984;20.426;2024-03-23T08:55:07;98296.88;;;16.75;57.69
52745;BME280;38637;49.984;20.426;2024-03-23T08:57:32;98301.41;;;16.88;57.99
52745;BME280;38637;49.984;20.426;2024-03-23T08:59:57;98281.78;;;16.90;57.62
52745;BME280;38637;49.984;20.426;2024-03-23T09:02:23;98284.31;;;17.04;56.58
52745;BME280;38637;49.984;20.426;2024-03-23T09:04:48;98283.66;;;17.07;56.18
52745;BME280;38637;49.984;20.426;2024-03-23T09:07:14;98290.75;;;17.16;56.68
52745;BME280;38637;49.984;20.426;2024-03-23T09:09:39;98271.75;;;17.23;54.91
52745;BME280;38637;49.984;20.426;2024-03-23T09:12:05;98281.91;;;17.32;53.23
52745;BME280;38637;49.984;20.426;2024-03-23T09:14:32;98272.97;;;17.35;55.22
52745;BME280;38637;49.984;20.426;2024-03-23T09:16:58;98270.81;;;17.40;52.85
52745;BME280;38637;49.984;20.426;2024-03-23T09:19:23;98265.00;;;17.42;50.84
52745;BME280;38637;49.984;20.426;2024-03-23T09:21:49;98262.13;;;17.30;50.51
52745;BME280;38637;49.984;20.426;2024-03-23T09:24:14;98256.53;;;17.38;49.85
52745;BME280;38637;49.984;20.426;2024-03-23T09:26:39;98251.09;;;17.51;49.35
52745;BME280;38637;49.984;20.426;2024-03-23T09:29:05;98236.94;;;17.61;49.25
52745;BME280;38637;49.984;20.426;2024-03-23T09:31:30;98236.66;;;17.75;49.92
52745;BME280;38637;49.984;20.426;2024-03-23T09:33:57;98242.13;;;17.83;49.95
52745;BME280;38637;49.984;20.426;2024-03-23T09:36:23;98231.56;;;17.85;50.77
52745;BME280;38637;49.984;20.426;2024-03-23T09:38:48;98229.25;;;17.87;50.49
52745;BME280;38637;49.984;20.426;2024-03-23T09:41:13;98227.03;;;17.81;49.55
52745;BME280;38637;49.984;20.426;2024-03-23T09:43:40;98228.53;;;17.78;49.51
52745;BME280;38637;49.984;20.426;2024-03-23T09:46:05;98224.31;;;17.72;49.35
52745;BME280;38637;49.984;20.426;2024-03-23T09:48:31;98221.91;;;17.71;49.71
52745;BME280;38637;49.984;20.426;2024-03-23T09:50:56;98198.41;;;17.64;50.50
52745;BME280;38637;49.984;20.426;2024-03-23T09:53:22;98206.44;;;17.78;50.30
52745;BME280;38637;49.984;20.426;2024-03-23T09:55:48;98212.69;;;17.87;50.36
52745;BME280;38637;49.984;20.426;2024-03-23T09:58:17;98202.16;;;18.02;50.38
52745;BME280;38637;49.984;20.426;2024-03-23T10:00:43;98192.53;;;18.08;50.21
52745;BME280;38637;49.984;20.426;2024-03-23T10:03:09;98188.06;;;18.16;48.78
52745;BME280;38637;49.984;20.426;2024-03-23T10:05:37;98178.88;;;18.24;48.21
52745;BME280;38637;49.984;20.426;2024-03-23T10:08:22;98175.09;;;18.28;47.84
52745;BME280;38637;49.984;20.426;2024-03-23T10:10:48;98178.44;;;18.34;47.58
52745;BME280;38637;49.984;20.426;2024-03-23T10:13:28;98156.34;;;18.34;48.50
52745;BME280;38637;49.984;20.426;2024-03-23T10:15:58;98165.25;;;18.52;48.08
52745;BME280;38637;49.984;20.426;2024-03-23T10:18:24;98159.16;;;18.58;47.25
52745;BME280;38637;49.984;20.426;2024-03-23T10:21:11;98126.75;;;18.47;46.85
52745;BME280;38637;49.984;20.426;2024-03-23T10:23:40;98155.91;;;18.69;43.82
52745;BME280;38637;49.984;20.426;2024-03-23T10:26:22;98141.28;;;18.68;43.58
52745;BME280;38637;49.984;20.426;2024-03-23T10:29:00;98143.84;;;18.73;43.78
52745;BME280;38637;49.984;20.426;2024-03-23T10:31:35;98137.16;;;18.74;43.07
52745;BME280;38637;49.984;20.426;2024-03-23T10:34:06;98133.25;;;18.75;42.86
52745;BME280;38637;49.984;20.426;2024-03-23T10:36:34;98130.84;;;18.74;41.68
52745;BME280;38637;49.984;20.426;2024-03-23T10:38:59;98123.66;;;18.73;41.74
52745;BME280;38637;49.984;20.426;2024-03-23T10:41:28;98109.97;;;18.76;42.33
52745;BME280;38637;49.984;20.426;2024-03-23T10:43:57;98110.66;;;18.86;42.40
52745;BME280;38637;49.984;20.426;2024-03-23T10:46:23;98102.56;;;18.93;42.62
52745;BME280;38637;49.984;20.426;2024-03-23T10:48:48;98093.13;;;18.94;42.50
52745;BME280;38637;49.984;20.426;2024-03-23T10:51:14;98088.25;;;19.03;41.80
52745;BME280;38637;49.984;20.426;2024-03-23T10:53:39;98074.56;;;18.94;40.54
52745;BME280;38637;49.984;20.426;2024-03-23T10:56:05;98094.59;;;19.03;41.98
52745;BME280;38637;49.984;20.426;2024-03-23T10:58:44;98078.81;;;19.04;41.74
52745;BME280;38637;49.984;20.426;2024-03-23T11:01:12;98075.00;;;19.09;43.49
52745;BME280;38637;49.984;20.426;2024-03-23T11:03:38;98064.81;;;19.13;42.57
52745;BME280;38637;49.984;20.426;2024-03-23T11:06:04;98062.06;;;19.13;43.14
52745;BME280;38637;49.984;20.426;2024-03-23T11:11:19;98049.63;;;19.06;42.13
52745;BME280;38637;49.984;20.426;2024-03-23T11:13:48;98042.72;;;19.00;41.67
52745;BME280;38637;49.984;20.426;2024-03-23T11:16:21;98027.75;;;19.01;42.30
52745;BME280;38637;49.984;20.426;2024-03-23T11:18:47;98012.09;;;18.93;41.54
52745;BME280;38637;49.984;20.426;2024-03-23T11:24:16;98012.19;;;18.97;42.20
52745;BME280;38637;49.984;20.426;2024-03-23T11:26:41;97999.16;;;18.97;42.36
52745;BME280;38637;49.984;20.426;2024-03-23T11:29:15;97991.69;;;18.98;42.39
52745;BME280;38637;49.984;20.426;2024-03-23T11:31:47;97979.56;;;19.02;42.68
52745;BME280;38637;49.984;20.426;2024-03-23T11:34:13;97978.06;;;19.05;42.09
52745;BME280;38637;49.984;20.426;2024-03-23T11:36:40;97965.13;;;19.09;42.50
52745;BME280;38637;49.984;20.426;2024-03-23T11:39:17;97968.91;;;19.17;41.94
52745;BME280;38637;49.984;20.426;2024-03-23T11:41:53;97956.50;;;19.26;42.32
52745;BME280;38637;49.984;20.426;2024-03-23T11:44:20;97955.91;;;19.33;42.15
52745;BME280;38637;49.984;20.426;2024-03-23T11:46:46;97945.72;;;19.37;40.67
52745;BME280;38637;49.984;20.426;2024-03-23T11:49:41;97954.66;;;19.46;41.04
52745;BME280;38637;49.984;20.426;2024-03-23T11:52:07;97942.63;;;19.55;40.30
52745;BME280;38637;49.984;20.426;2024-03-23T11:54:33;97949.16;;;19.62;39.75
52745;BME280;38637;49.984;20.426;2024-03-23T11:57:07;97937.47;;;19.69;39.39
52745;BME280;38637;49.984;20.426;2024-03-23T11:59:40;97934.53;;;19.78;40.14
52745;BME280;38637;49.984;20.426;2024-03-23T12:02:07;97926.66;;;19.80;40.08
52745;BME280;38637;49.984;20.426;2024-03-23T12:04:32;97933.72;;;19.93;39.10
52745;BME280;38637;49.984;20.426;2024-03-23T12:07:20;97922.00;;;20.00;38.60
52745;BME280;38637;49.984;20.426;2024-03-23T12:09:47;97918.44;;;19.99;38.26
52745;BME280;38637;49.984;20.426;2024-03-23T12:12:17;97911.47;;;20.05;39.04
52745;BME280;38637;49.984;20.426;2024-03-23T12:14:43;97900.16;;;20.14;39.26
52745;BME280;38637;49.984;20.426;2024-03-23T12:17:21;97892.09;;;20.25;39.60
52745;BME280;38637;49.984;20.426;2024-03-23T12:19:46;97888.31;;;20.33;39.58
52745;BME280;38637;49.984;20.426;2024-03-23T12:22:12;97884.91;;;20.39;39.05
52745;BME280;38637;49.984;20.426;2024-03-23T12:24:37;97875.19;;;20.49;38.90
52745;BME280;38637;49.984;20.426;2024-03-23T12:27:04;97869.09;;;20.59;39.72
52745;BME280;38637;49.984;20.426;2024-03-23T12:29:33;97865.53;;;20.59;38.02
52745;BME280;38637;49.984;20.426;2024-03-23T12:32:00;97847.63;;;20.56;38.59
52745;BME280;38637;49.984;20.426;2024-03-23T12:34:25;97855.66;;;20.61;38.50
52745;BME280;38637;49.984;20.426;2024-03-23T12:36:51;97841.41;;;20.63;37.37
52745;BME280;38637;49.984;20.426;2024-03-23T12:39:16;97834.34;;;20.65;38.14
52745;BME280;38637;49.984;20.426;2024-03-23T12:41:41;97822.84;;;20.63;38.19
52745;BME280;38637;49.984;20.426;2024-03-23T12:44:07;97828.94;;;20.53;37.93
52745;BME280;38637;49.984;20.426;2024-03-23T12:46:34;97807.63;;;20.38;37.83
52745;BME280;38637;49.984;20.426;2024-03-23T12:48:59;97812.00;;;20.39;37.78
52745;BME280;38637;49.984;20.426;2024-03-23T12:51:25;97821.41;;;20.34;38.00
52745;BME280;38637;49.984;20.426;2024-03-23T12:53:50;97807.41;;;20.27;38.16
52745;BME280;38637;49.984;20.426;2024-03-23T12:56:16;97803.38;;;20.25;39.01
52745;BME280;38637;49.984;20.426;2024-03-23T12:58:41;97792.06;;;20.14;38.01
52745;BME280;38637;49.984;20.426;2024-03-23T13:01:06;97791.13;;;20.06;38.50
52745;BME280;38637;49.984;20.426;2024-03-23T13:03:31;97779.44;;;19.97;38.33
52745;BME280;38637;49.984;20.426;2024-03-23T13:05:57;97769.56;;;19.80;39.15
52745;BME280;38637;49.984;20.426;2024-03-23T13:08:22;97777.06;;;19.80;38.85
52745;BME280;38637;49.984;20.426;2024-03-23T13:10:51;97760.22;;;19.69;38.86
52745;BME280;38637;49.984;20.426;2024-03-23T13:13:17;97760.59;;;19.67;39.32
52745;BME280;38637;49.984;20.426;2024-03-23T13:15:42;97746.31;;;19.65;40.30
52745;BME280;38637;49.984;20.426;2024-03-23T13:18:07;97743.78;;;19.60;40.37
52745;BME280;38637;49.984;20.426;2024-03-23T13:20:35;97727.38;;;19.51;39.90
52745;BME280;38637;49.984;20.426;2024-03-23T13:23:01;97732.69;;;19.41;39.15
52745;BME280;38637;49.984;20.426;2024-03-23T13:25:26;97729.31;;;19.32;41.03
52745;BME280;38637;49.984;20.426;2024-03-23T13:27:51;97718.75;;;19.21;41.04
52745;BME280;38637;49.984;20.426;2024-03-23T13:30:17;97717.00;;;19.13;41.50
52745;BME280;38637;49.984;20.426;2024-03-23T13:32:42;97702.56;;;19.04;42.48
52745;BME280;38637;49.984;20.426;2024-03-23T13:35:07;97696.03;;;18.96;42.27
52745;BME280;38637;49.984;20.426;2024-03-23T13:37:33;97685.53;;;18.86;41.11
52745;BME280;38637;49.984;20.426;2024-03-23T13:39:59;97688.91;;;18.79;41.58
52745;BME280;38637;49.984;20.426;2024-03-23T13:42:24;97688.09;;;18.79;41.58
52745;BME280;38637;49.984;20.426;2024-03-23T13:44:51;97686.50;;;18.78;42.02
52745;BME280;38637;49.984;20.426;2024-03-23T13:47:16;97682.56;;;18.79;41.53